CheckWX is a tool to help pilots better visualize weather data.  It is not intended as a substitute for an official pre-flight weather briefing.

15:58:25 UTC

GVNP TAF
Praia International Airport
Praia, Cape Verde
TAF GVNP 061100Z 0612/0718 03016G28KT 9999 SCT015 TEMPO 0623/0705 03014KT

Apr-6@
12:00 UTC

Apr-6 @ 12:00 UTC

Apr-7@
18:00 UTC

Apr-7 @ 18:00 UTC

TAF GVNP 061100Z 0612/0718 03016G28KT 9999 SCT015
Wind
  • 030° at 16 KTS
  • {Gusting to 28 KTS
Cloud Levels
  • Scattered at 1,500' AGL

Apr-6@
23:00 UTC

Apr-6 @ 23:00 UTC

Apr-7@
05:00 UTC

Apr-7 @ 05:00 UTC

TEMPO 0623/0705 03014KT

Expired

Wind
  • 030° at 14 KTS
Cloud Levels